Flugplatz Memmingen Allgau

Bericht für EDJA

vom 30.10. um 03:20 UTC

Wind 12 kt aus 220°

Sichtweite 10 km oder mehr

aufgelockert bewölkt in 3500 ft

bedeckt in 14000 ft

Temperatur 9.0°C

Taupunkt 8.0°C

Luftfeuchtigkeit 93%

Luftdruck 1023 hPa

EDJA 300320Z AUTO 22012KT 9999 // SCT035/// OVC140/// 09/08 Q1023
Keine Prognose (TAF) verfügbar.
Impressum